Weather observations for the past three days for
Crookston Municipal Field
Imperial (Metric)
Date Time (cdt) Wind (mph) Vis. (mi.) Weather Sky Cond. Temperature (ºF) Relative Humidity Wind Chill (°F) Heat Index (°F) Pressure Precipitation (in)
Air Dwpt 6 hour altimeter (in) sea level (mb) 1 hr 3 hr 6 hr
Max. Min.
02 18:15 Calm 10.00 Partly Cloudy SCT095 71.6 35.6 27% 29.63 0.0
02 17:55 SW 10 10.00 Fair CLR 71.6 35.6 27% 29.64 0.0
02 17:35 S 12 10.00 Partly Cloudy SCT110 71.6 35.6 27% 29.64 0.0
02 17:15 SW 13 G 21 10.00 Mostly Cloudy BKN100 69.8 35.6 29% 29.65 0.0
02 16:55 W 15 G 21 10.00 Mostly Cloudy BKN090 73.4 35.6 25% 29.66 0.0
02 16:35 SW 21 G 28 10.00 Partly Cloudy and Breezy SCT090 71.6 35.6 27% 29.67 0.0
02 16:15 SW 18 G 23 10.00 Partly Cloudy SCT090 71.6 35.6 27% 29.69 0.0
02 15:55 SW 17 10.00 Partly Cloudy SCT090 68 35.6 30% 29.69 0.0
02 15:35 S 3 10.00 Mostly Cloudy BKN090 66.2 35.6 32% 29.71 0.0
02 15:15 SW 12 10.00 Overcast OVC090 66.2 35.6 32% 29.73 0.0
02 14:55 W 12 10.00 Mostly Cloudy BKN090 66.2 35.6 32% 29.74 0.0
02 14:35 SW 8 10.00 Mostly Cloudy BKN100 64.4 35.6 34% 29.75 0.0
02 14:15 Calm 10.00 Partly Cloudy SCT100 66.2 35.6 32% 29.76 0.0
02 13:55 Calm 10.00 Fair CLR 64.4 35.6 34% 29.76 0.0
02 13:35 SW 18 G 31 10.00 Fair CLR 66.2 33.8 30% 29.78 0.0
02 13:15 W 18 10.00 Fair CLR 66.2 33.8 30% 29.78 0.0
02 12:55 W 18 10.00 Fair CLR 66.2 35.6 32% 29.78 0.0
02 12:35 W 12 10.00 Fair CLR 66.2 35.6 32% 29.79 0.0
02 12:15 Calm 10.00 Fair CLR 64.4 35.6 34% 29.79 0.0
02 11:55 S 9 G 16 10.00 Fair CLR 64.4 37.4 37% 29.8 0.0
02 11:35 S 3 G 17 10.00 Fair CLR 62.6 35.6 37% 29.81 0.0
02 11:15 Calm 10.00 Fair CLR 60.8 35.6 39% 29.82 0.0
02 10:55 S 13 10.00 Fair CLR 59 35.6 42% 29.83 0.0
02 10:35 S 12 10.00 Fair CLR 57.2 35.6 44% 29.84 0.0
02 10:15 SW 10 10.00 Fair CLR 55.4 33.8 44% 29.84 0.0
02 09:55 Calm 10.00 Fair CLR 55.4 33.8 44% 29.85 0.0
02 09:35 S 13 G 16 10.00 Fair CLR 53.6 33.8 47% 29.86 0.0
02 09:15 SW 12 G 20 10.00 Fair CLR 51.8 33.8 50% 29.86 0.0
02 08:55 S 13 10.00 Fair CLR 50 33.8 54% 46 29.87 0.0
02 08:35 S 14 10.00 Fair CLR 48.2 33.8 58% 43 29.87 0.0
02 08:15 S 13 10.00 Fair CLR 44.6 32 61% 39 29.88 0.0
02 07:55 SW 12 10.00 Fair CLR 41 30.2 66% 35 29.89 0.0
02 07:35 S 12 10.00 Fair CLR 41 28.4 61% 35 29.89 0.0
02 07:15 S 9 10.00 Fair CLR 39.2 28.4 65% 34 29.9 0.0
02 06:55 S 12 10.00 Partly Cloudy SCT110 39.2 28.4 65% 33 29.91 0.0
02 06:35 S 9 10.00 Partly Cloudy SCT110 39.2 28.4 65% 34 29.91 0.0
02 06:15 S 10 10.00 Partly Cloudy SCT110 37.4 26.6 65% 31 29.92 0.0
02 05:55 S 10 10.00 Partly Cloudy SCT110 37.4 26.6 65% 31 29.92 0.0
02 05:35 S 10 10.00 Partly Cloudy SCT110 37.4 26.6 65% 31 29.92 0.0
02 05:15 Calm 10.00 Partly Cloudy SCT110 37.4 26.6 65% 29.94 0.0
02 04:55 Calm 10.00 Partly Cloudy SCT110 35.6 26.6 70% 29.95 0.0
02 04:35 Calm 10.00 Partly Cloudy SCT110 35.6 26.6 70% 29.95 0.0
02 04:15 Calm 10.00 Fair CLR 33.8 26.6 75% 29.96 0.0
02 03:55 Calm 10.00 Fair CLR 35.6 26.6 70% 29.97 0.0
02 03:35 Calm 10.00 Partly Cloudy SCT100 35.6 26.6 70% 29.98 0.0
02 03:15 Calm 10.00 Partly Cloudy SCT100 35.6 26.6 70% 29.98 0.0
02 02:55 Calm 10.00 Fair CLR 33.8 26.6 75% 29.99 0.0
02 02:35 Calm 10.00 Fair CLR 33.8 26.6 75% 29.99 0.0
02 02:15 Calm 10.00 Fair CLR 33.8 26.6 75% 30 0.0
02 01:55 Calm 10.00 Fair CLR 35.6 26.6 70% 30.01 0.0
02 01:35 Calm 10.00 Fair CLR 35.6 26.6 70% 30.01 0.0
02 01:15 Calm 10.00 Fair CLR 37.4 26.6 65% 30.01 0.0
02 00:55 Calm 10.00 Fair CLR 35.6 26.6 70% 30.02 0.0
02 00:35 Calm 10.00 Fair CLR 35.6 28.4 75% 30.02 0.0
02 00:15 Calm 10.00 Fair CLR 37.4 28.4 70% 30.02 0.0
01 23:55 Calm 10.00 Fair CLR 37.4 28.4 70% 30.02 0.0
01 23:35 Calm 10.00 Fair CLR 37.4 28.4 70% 30.03 0.0
01 23:15 Calm 10.00 Fair CLR 39.2 28.4 65% 30.02 0.0
01 22:55 Calm 10.00 Fair CLR 39.2 30.2 70% 30.02 0.0
01 22:35 Calm 10.00 Fair CLR 39.2 30.2 70% 30.03 0.0
01 22:15 Calm 10.00 Fair CLR 42.8 30.2 61% 30.03 0.0
01 21:55 Calm 10.00 Fair CLR 44.6 28.4 53% 30.03 0.0
01 21:35 Calm 10.00 Fair CLR 48.2 26.6 43% 30.03 0.0
01 21:15 Calm 10.00 Fair CLR 50 24.8 37% 30.03 0.0
01 20:55 Calm 10.00 Fair CLR 48.2 24.8 40% 30.03 0.0
01 20:35 Calm 10.00 Fair CLR 48.2 28.4 46% 30.03 0.0
01 20:15 Calm 10.00 Fair CLR 51.8 26.6 38% 30.03 0.0
01 19:55 Calm 10.00 Fair CLR 53.6 26.6 35% 30.03 0.0
01 19:35 Calm 10.00 Fair CLR 55.4 24.8 31% 30.04 0.0
01 19:15 Calm 10.00 Fair CLR 55.4 23 28% 30.04 0.0
01 18:55 Calm 10.00 Fair CLR 55.4 24.8 31% 30.04 0.0
01 18:35 Calm 10.00 Fair CLR 55.4 24.8 31% 30.05 0.0
01 18:15 Calm 10.00 Fair CLR 55.4 24.8 31% 30.05 0.0
01 17:55 Calm 10.00 Fair CLR 55.4 24.8 31% 30.05 0.0
01 17:35 Calm 10.00 Fair CLR 55.4 24.8 31% 30.05 0.0
01 17:15 Calm 10.00 Fair CLR 55.4 24.8 31% 30.05 0.0
01 16:55 Calm 10.00 Fair CLR 55.4 24.8 31% 30.05 0.0
01 16:35 Calm 10.00 Fair CLR 55.4 24.8 31% 30.06 0.0
01 16:15 Calm 10.00 Fair CLR 53.6 24.8 33% 30.06 0.0
01 15:55 Calm 10.00 Fair CLR 53.6 24.8 33% 30.07 0.0
01 15:35 Calm 10.00 Fair CLR 53.6 26.6 35% 30.07 0.0
01 15:15 Calm 10.00 Fair CLR 53.6 26.6 35% 30.08 0.0
01 14:55 Calm 10.00 Fair CLR 53.6 26.6 35% 30.08 0.0
01 14:35 Calm 10.00 Fair CLR 51.8 26.6 38% 30.08 0.0
01 14:15 Calm 10.00 Fair CLR 51.8 24.8 35% 30.09 0.0
01 13:55 Calm 10.00 Fair CLR 51.8 26.6 38% 30.09 0.0
01 13:35 Calm 10.00 Fair CLR 51.8 26.6 38% 30.1 0.0
01 13:15 Calm 10.00 Fair CLR 50 26.6 40% 30.11 0.0
01 12:55 Calm 10.00 Fair CLR 48.2 24.8 40% 30.11 0.0
01 12:35 Calm 10.00 Fair CLR 48.2 26.6 43% 30.11 0.0
01 12:15 Calm 10.00 Fair CLR 46.4 24.8 43% 30.12 0.0
01 11:55 Calm 10.00 Fair CLR 48.2 26.6 43% 30.12 0.0
01 11:35 Calm 10.00 Fair CLR 46.4 26.6 46% 30.12 0.0
01 11:15 Calm 10.00 Fair CLR 46.4 26.6 46% 30.13 0.0
01 10:55 Calm 10.00 Fair CLR 44.6 26.6 49% 30.13 0.0
01 10:35 Calm 10.00 Fair CLR 44.6 26.6 49% 30.13 0.0
01 10:15 Calm 10.00 Fair CLR 44.6 26.6 49% 30.13 0.0
01 09:55 Calm 10.00 Fair CLR 42.8 26.6 53% 30.13 0.0
01 09:35 Calm 10.00 Fair CLR 41 26.6 57% 30.14 0.0
01 09:15 N 5 10.00 Fair CLR 39.2 26.6 61% 36 30.14 0.0
01 08:55 Calm 10.00 Fair CLR 37.4 26.6 65% 30.14 0.0
01 08:35 Calm 10.00 Fair CLR 35.6 26.6 70% 30.13 0.0
01 08:15 Calm 10.00 Fair CLR 33.8 26.6 75% 30.13 0.0
01 07:55 Calm 10.00 Fair CLR 32 26.6 80% 30.13 0.0
01 07:35 Calm 10.00 Fair CLR 30.2 26.6 86% 30.13 0.0
01 07:15 Calm 10.00 Fair CLR 30.2 24.8 80% 30.12 0.0
01 06:55 Calm 10.00 Fair CLR 28.4 24.8 86% 30.12 0.0
01 06:35 Calm 10.00 Fair CLR 26.6 23 86% 30.11 0.0
01 06:15 Calm 10.00 Fair CLR 24.8 21.2 86% 30.11 0.0
01 05:55 Calm 10.00 Fair CLR 24.8 21.2 86% 30.1 0.0
01 05:35 Calm 10.00 Fair CLR 24.8 21.2 86% 30.1 0.0
01 05:15 Calm 10.00 Fair CLR 24.8 21.2 86% 30.1 0.0
01 04:55 NW 3 10.00 Fair CLR 24.8 21.2 86% 30.1 0.0
01 04:35 Calm 10.00 Fair CLR 26.6 23 86% 30.09 0.0
01 04:15 Calm 10.00 Fair CLR 28.4 23 80% 30.09 0.0
01 03:55 Calm 10.00 Fair CLR 28.4 24.8 86% 30.09 0.0
01 03:35 Calm 10.00 Fair CLR 28.4 24.8 86% 30.08 0.0
01 03:15 Calm 10.00 Fair CLR 26.6 24.8 93% 30.09 0.0
01 02:55 Calm 10.00 Fair CLR 28.4 24.8 86% 30.08 0.0
01 02:35 Calm 10.00 Fair CLR 28.4 24.8 86% 30.08 0.0
01 02:15 Calm 10.00 Fair CLR 28.4 24.8 86% 30.08 0.0
01 01:55 Calm 10.00 Fair CLR 28.4 23 80% 30.08 0.0
01 01:35 Calm 10.00 Fair CLR 28.4 23 80% 30.08 0.0
01 01:15 Calm 10.00 Fair CLR 30.2 24.8 80% 30.08 0.0
01 00:55 N 3 10.00 Fair CLR 30.2 24.8 80% 30.08 0.0
01 00:35 Calm 10.00 Fair CLR 30.2 24.8 80% 30.08 0.0
01 00:15 Calm 10.00 Fair CLR 30.2 24.8 80% 30.08 0.0
30 23:55 NW 9 10.00 Fair CLR 32 26.6 80% 25 30.08 0.0
30 23:35 N 8 10.00 Fair CLR 32 24.8 75% 25 30.08 0.0
30 23:15 NW 9 10.00 Fair CLR 33.8 24.8 70% 27 30.08 0.0
30 22:55 NW 10 10.00 Fair CLR 33.8 26.6 75% 26 30.08 0.0
30 22:35 NW 7 10.00 Fair CLR 35.6 26.6 70% 31 30.08 0.0
30 22:15 NW 8 10.00 Fair CLR 35.6 26.6 70% 30 30.08 0.0
30 21:55 NW 12 10.00 Fair CLR 35.6 26.6 70% 28 30.08 0.0
30 21:35 Calm 10.00 Fair CLR 35.6 26.6 70% 30.08 0.0
30 21:15 Calm 10.00 Fair CLR 37.4 26.6 65% 30.07 0.0
30 20:55 Calm 10.00 Fair CLR 39.2 26.6 61% 30.07 0.0
30 20:35 Calm 10.00 Fair CLR 41 26.6 57% 30.06 0.0
30 20:15 N 12 10.00 Partly Cloudy SCT048 42.8 26.6 53% 37 30.06 0.0
30 19:55 N 12 10.00 Mostly Cloudy BKN048 44.6 26.6 49% 39 30.05 0.0
30 19:35 N 15 10.00 Partly Cloudy SCT050 44.6 26.6 49% 38 30.05 0.0
30 19:15 N 14 10.00 Fair CLR 44.6 24.8 46% 39 30.05 0.0
30 18:55 N 17 G 23 10.00 Partly Cloudy SCT050 44.6 24.8 46% 38 30.05 0.0
30 18:35 N 15 G 22 10.00 Partly Cloudy SCT050 44.6 26.6 49% 38 30.05 0.0
30 18:15 NW 13 10.00 Partly Cloudy SCT050 46.4 26.6 46% 41 30.05 0.0
30 17:55 NW 15 G 20 10.00 Partly Cloudy SCT050 44.6 26.6 49% 38 30.05 0.0
30 17:35 N 16 G 22 10.00 Partly Cloudy SCT050 46.4 26.6 46% 40 30.05 0.0
30 17:15 N 15 G 21 10.00 Mostly Cloudy BKN050 46.4 24.8 43% 41 30.05 0.0
30 16:55 N 16 G 26 10.00 Overcast OVC050 46.4 26.6 46% 40 30.05 0.0
30 16:35 N 10 G 23 10.00 Mostly Cloudy BKN050 46.4 24.8 43% 42 30.05 0.0
30 16:15 N 14 G 23 10.00 Mostly Cloudy BKN050 46.4 24.8 43% 41 30.05 0.0
30 15:55 NW 16 G 21 10.00 Mostly Cloudy BKN050 46.4 26.6 46% 40 30.06 0.0
30 15:35 N 14 10.00 Overcast OVC050 46.4 26.6 46% 41 30.06 0.0
30 15:15 NW 13 G 21 10.00 Overcast OVC050 46.4 26.6 46% 41 30.07 0.0
30 14:55 N 14 G 20 10.00 Overcast OVC050 46.4 26.6 46% 41 30.06 0.0
30 14:35 N 13 G 18 10.00 Overcast OVC050 46.4 26.6 46% 41 30.06 0.0
30 14:15 N 13 G 18 10.00 Mostly Cloudy BKN050 46.4 26.6 46% 41 30.07 0.0
30 13:55 N 10 G 21 10.00 Mostly Cloudy BKN048 46.4 26.6 46% 42 30.08 0.0
30 13:35 NW 8 10.00 Mostly Cloudy BKN045 46.4 26.6 46% 43 30.08 0.0
30 13:15 N 6 G 16 10.00 Mostly Cloudy BKN047 BKN055 44.6 26.6 49% 42 30.08 0.0
30 12:55 NE 5 10.00 Mostly Cloudy SCT049 BKN055 44.6 26.6 49% 43 30.09 0.0
30 12:35 N 10 10.00 Overcast OVC049 44.6 26.6 49% 40 30.09 0.0
30 12:15 NE 5 10.00 Mostly Cloudy BKN049 44.6 26.6 49% 43 30.09 0.0
30 11:55 N 6 10.00 Partly Cloudy SCT047 44.6 26.6 49% 42 30.09 0.0
30 11:35 NE 9 10.00 Mostly Cloudy BKN047 BKN075 42.8 26.6 53% 38 30.1 0.0
30 11:15 Calm 10.00 Mostly Cloudy BKN047 BKN075 39.2 24.8 56% 30.1 0.0
30 10:55 NE 5 10.00 Overcast BKN045 OVC075 39.2 24.8 56% 36 30.1 0.0
30 10:35 N 5 10.00 Overcast OVC045 37.4 24.8 60% 34 30.11 0.0
30 10:15 Calm 10.00 Overcast OVC045 37.4 26.6 65% 30.11 0.0
30 09:55 Calm 10.00 Overcast BKN045 OVC070 37.4 26.6 65% 30.11 0.0
30 09:35 Calm 10.00 Overcast BKN045 OVC070 37.4 26.6 65% 30.11 0.0
30 09:15 Calm 10.00 Mostly Cloudy BKN045 BKN055 BKN100 35.6 28.4 75% 30.11 0.0
30 08:55 Calm 10.00 Overcast SCT045 BKN055 OVC100 35.6 30.2 81% 30.11 0.0
30 08:35 Calm 10.00 Overcast OVC065 35.6 30.2 81% 30.11 0.0
30 08:15 N 3 10.00 Overcast OVC065 33.8 30.2 87% 30.11 0.0
30 07:55 Calm 10.00 Overcast SCT043 BKN065 OVC090 33.8 30.2 87% 30.11 0.0
30 07:35 Calm 10.00 Overcast SCT043 SCT065 OVC080 33.8 30.2 87% 30.11 0.0
30 07:15 Calm 10.00 Light Snow SCT013 BKN065 OVC080 33.8 30.2 87% 30.11 0.0
30 06:55 Calm 7.00 Light Snow SCT018 BKN027 OVC031 33.8 28.4 81% 30.11 0.0
30 06:35 Calm 10.00 Overcast SCT029 BKN037 OVC065 33.8 28.4 81% 30.11 0.0
30 06:15 Calm 10.00 Overcast SCT060 BKN065 OVC095 33.8 28.4 81% 30.11 0.0
30 05:55 Calm 10.00 Overcast BKN060 BKN065 OVC100 33.8 28.4 81% 30.11 0.0
30 05:35 Calm 10.00 Overcast SCT060 BKN065 OVC100 33.8 28.4 81% 30.12 0.0
30 05:15 Calm 10.00 Overcast BKN060 OVC070 33.8 28.4 81% 30.12 0.0
30 04:55 Calm 10.00 Overcast OVC060 33.8 28.4 81% 30.12 0.0
30 04:35 Calm 10.00 Unknown Precip OVC060 33.8 28.4 81% 30.12 0.0
30 04:15 Calm 10.00 Light Snow BKN060 OVC070 33.8 28.4 81% 30.12 0.0
30 03:55 Calm 10.00 Overcast BKN060 OVC075 33.8 28.4 81% 30.12 0.0
30 03:35 Calm 10.00 Overcast BKN060 OVC070 32 26.6 80% 30.11 0.0
30 03:15 Calm 10.00 Overcast OVC060 33.8 28.4 81% 30.11 0.0
30 02:55 Calm 10.00 Overcast OVC070 32 28.4 87% 30.11 0.0
30 02:35 Calm 10.00 Overcast OVC070 33.8 26.6 75% 30.11 0.0
30 02:15 Calm 10.00 Overcast BKN070 OVC100 32 26.6 80% 30.11 0.0
30 01:55 Calm 10.00 Overcast SCT080 OVC100 30.2 26.6 86% 30.11 0.0
30 01:35 Calm 10.00 Mostly Cloudy BKN100 30.2 26.6 86% 30.11 0.0
30 01:15 Calm 10.00 Mostly Cloudy BKN060 32 24.8 75% 30.11 0.0
30 00:55 Calm 10.00 Mostly Cloudy BKN060 30.2 24.8 80% 30.11 0.0
30 00:35 Calm 10.00 Mostly Cloudy SCT060 BKN070 30.2 24.8 80% 30.11 0.0
30 00:15 Calm 10.00 Partly Cloudy SCT070 30.2 24.8 80% 30.11 0.0
29 23:55 Calm 10.00 Fair CLR 33.8 23 65% 30.11 0.0
29 23:35 Calm 10.00 Fair CLR 33.8 24.8 70% 30.11 0.0
29 23:15 Calm 10.00 Fair CLR 33.8 24.8 70% 30.11 0.0
29 22:55 Calm 10.00 Fair CLR 33.8 24.8 70% 30.11 0.0
29 22:35 Calm 10.00 Fair CLR 35.6 24.8 65% 30.11 0.0
29 22:15 Calm 10.00 Fair CLR 35.6 24.8 65% 30.11 0.0
29 21:55 Calm 10.00 Fair CLR 35.6 24.8 65% 30.11 0.0
29 21:35 Calm 10.00 Fair CLR 35.6 26.6 70% 30.1 0.0
29 21:15 Calm 10.00 Fair CLR 35.6 26.6 70% 30.1 0.0
29 20:55 Calm 10.00 Fair CLR 37.4 26.6 65% 30.1 0.0
29 20:35 N 7 10.00 Fair CLR 37.4 26.6 65% 33 30.1 0.0
29 20:15 N 5 10.00 Fair CLR 39.2 26.6 61% 36 30.09 0.0
29 19:55 N 9 G 16 10.00 Fair CLR 41 26.6 57% 36 30.09 0.0
29 19:35 N 9 G 17 10.00 Fair CLR 42.8 26.6 53% 38 30.08 0.0
29 19:15 N 13 G 18 10.00 Fair CLR 42.8 26.6 53% 37 30.08 0.0
29 18:55 N 14 G 20 10.00 Partly Cloudy SCT047 42.8 26.6 53% 36 30.08 0.0
29 18:35 N 13 G 20 10.00 Fair CLR 42.8 26.6 53% 37 30.08 0.0
Date Time (cdt) Wind (mph) Vis. (mi.) Weather Sky Cond. Air Dwpt Max. Min. Relative Humidity Wind Chill (°F) Heat Index (°F) altimeter (in) sea level (mb) 1 hr 3 hr 6 hr
6 hour
Temperature (ºF) Pressure Precipitation (in)